sensor_id;sensor_type;location;lat;lon;timestamp;P1;durP1;ratioP1;P2;durP2;ratioP2
64227;SDS011;50546;49.146;10.616;2022-08-11T00:00:00;7.07;;;3.67;;
64227;SDS011;50546;49.146;10.616;2022-08-11T00:02:34;6.28;;;3.33;;
64227;SDS011;50546;49.146;10.616;2022-08-11T00:05:03;6.35;;;3.22;;
64227;SDS011;50546;49.146;10.616;2022-08-11T00:07:44;7.60;;;4.03;;
64227;SDS011;50546;49.146;10.616;2022-08-11T00:10:19;9.30;;;3.95;;
64227;SDS011;50546;49.146;10.616;2022-08-11T00:12:51;6.50;;;3.63;;
64227;SDS011;50546;49.146;10.616;2022-08-11T00:15:20;8.25;;;3.80;;
64227;SDS011;50546;49.146;10.616;2022-08-11T00:17:46;6.60;;;3.92;;
64227;SDS011;50546;49.146;10.616;2022-08-11T00:20:13;7.93;;;3.95;;
64227;SDS011;50546;49.146;10.616;2022-08-11T00:22:40;7.68;;;3.90;;
64227;SDS011;50546;49.146;10.616;2022-08-11T00:25:09;8.38;;;4.00;;
64227;SDS011;50546;49.146;10.616;2022-08-11T00:27:36;6.55;;;3.65;;
64227;SDS011;50546;49.146;10.616;2022-08-11T00:30:04;8.55;;;4.35;;
64227;SDS011;50546;49.146;10.616;2022-08-11T00:32:30;5.90;;;3.40;;
64227;SDS011;50546;49.146;10.616;2022-08-11T00:34:57;7.88;;;3.88;;
64227;SDS011;50546;49.146;10.616;2022-08-11T00:37:25;8.05;;;3.42;;
64227;SDS011;50546;49.146;10.616;2022-08-11T00:39:53;7.13;;;3.90;;
64227;SDS011;50546;49.146;10.616;2022-08-11T00:55:33;7.22;;;3.92;;
64227;SDS011;50546;49.146;10.616;2022-08-11T01:37:57;7.70;;;3.47;;
64227;SDS011;50546;49.146;10.616;2022-08-11T01:46:39;7.10;;;4.45;;
64227;SDS011;50546;49.146;10.616;2022-08-11T01:49:16;7.72;;;4.45;;
64227;SDS011;50546;49.146;10.616;2022-08-11T01:54:36;7.93;;;4.15;;
64227;SDS011;50546;49.146;10.616;2022-08-11T01:59:38;6.93;;;3.85;;
64227;SDS011;50546;49.146;10.616;2022-08-11T02:08:34;7.40;;;4.18;;
64227;SDS011;50546;49.146;10.616;2022-08-11T02:11:21;8.25;;;3.92;;
64227;SDS011;50546;49.146;10.616;2022-08-11T02:14:18;6.90;;;3.83;;
64227;SDS011;50546;49.146;10.616;2022-08-11T02:16:54;7.20;;;3.90;;
64227;SDS011;50546;49.146;10.616;2022-08-11T02:22:36;6.55;;;3.92;;
64227;SDS011;50546;49.146;10.616;2022-08-11T02:25:39;8.48;;;3.90;;
64227;SDS011;50546;49.146;10.616;2022-08-11T02:28:28;7.57;;;4.22;;
64227;SDS011;50546;49.146;10.616;2022-08-11T02:31:05;7.30;;;4.07;;
64227;SDS011;50546;49.146;10.616;2022-08-11T02:34:08;6.60;;;4.18;;
64227;SDS011;50546;49.146;10.616;2022-08-11T02:37:10;7.30;;;4.25;;
64227;SDS011;50546;49.146;10.616;2022-08-11T03:13:41;7.90;;;3.88;;
64227;SDS011;50546;49.146;10.616;2022-08-11T03:16:42;7.43;;;4.40;;
64227;SDS011;50546;49.146;10.616;2022-08-11T03:28:00;7.38;;;4.38;;
64227;SDS011;50546;49.146;10.616;2022-08-11T03:30:51;8.50;;;4.63;;
64227;SDS011;50546;49.146;10.616;2022-08-11T03:33:29;7.28;;;4.38;;
64227;SDS011;50546;49.146;10.616;2022-08-11T03:41:51;6.50;;;3.85;;
64227;SDS011;50546;49.146;10.616;2022-08-11T03:47:28;6.22;;;4.15;;
64227;SDS011;50546;49.146;10.616;2022-08-11T03:55:12;7.03;;;4.22;;
64227;SDS011;50546;49.146;10.616;2022-08-11T04:00:46;8.27;;;4.28;;
64227;SDS011;50546;49.146;10.616;2022-08-11T04:06:14;6.47;;;4.28;;
64227;SDS011;50546;49.146;10.616;2022-08-11T04:08:54;7.25;;;4.57;;
64227;SDS011;50546;49.146;10.616;2022-08-11T04:14:41;6.93;;;4.80;;
64227;SDS011;50546;49.146;10.616;2022-08-11T04:31:35;8.82;;;4.55;;
64227;SDS011;50546;49.146;10.616;2022-08-11T04:34:04;8.55;;;4.25;;
64227;SDS011;50546;49.146;10.616;2022-08-11T04:46:14;8.00;;;4.50;;
64227;SDS011;50546;49.146;10.616;2022-08-11T04:55:31;8.27;;;4.35;;
64227;SDS011;50546;49.146;10.616;2022-08-11T04:58:24;6.53;;;4.10;;
64227;SDS011;50546;49.146;10.616;2022-08-11T05:04:50;7.05;;;4.50;;
64227;SDS011;50546;49.146;10.616;2022-08-11T05:13:32;8.13;;;4.10;;
64227;SDS011;50546;49.146;10.616;2022-08-11T05:19:06;7.43;;;4.53;;
64227;SDS011;50546;49.146;10.616;2022-08-11T05:21:53;7.95;;;4.18;;
64227;SDS011;50546;49.146;10.616;2022-08-11T05:24:43;6.80;;;4.20;;
64227;SDS011;50546;49.146;10.616;2022-08-11T05:27:37;7.43;;;4.35;;
64227;SDS011;50546;49.146;10.616;2022-08-11T05:30:27;8.20;;;4.40;;
64227;SDS011;50546;49.146;10.616;2022-08-11T05:33:14;9.30;;;4.65;;
64227;SDS011;50546;49.146;10.616;2022-08-11T05:36:17;8.13;;;4.53;;
64227;SDS011;50546;49.146;10.616;2022-08-11T05:39:00;8.35;;;4.78;;
64227;SDS011;50546;49.146;10.616;2022-08-11T05:41:47;8.35;;;4.80;;
64227;SDS011;50546;49.146;10.616;2022-08-11T05:44:33;7.97;;;4.47;;
64227;SDS011;50546;49.146;10.616;2022-08-11T05:47:23;11.63;;;4.53;;
64227;SDS011;50546;49.146;10.616;2022-08-11T05:50:09;6.65;;;4.43;;
64227;SDS011;50546;49.146;10.616;2022-08-11T05:52:55;6.85;;;4.32;;
64227;SDS011;50546;49.146;10.616;2022-08-11T05:55:40;8.70;;;4.40;;
64227;SDS011;50546;49.146;10.616;2022-08-11T05:58:25;7.05;;;4.22;;
64227;SDS011;50546;49.146;10.616;2022-08-11T06:00:58;6.78;;;4.10;;
64227;SDS011;50546;49.146;10.616;2022-08-11T06:03:25;7.68;;;4.65;;
64227;SDS011;50546;49.146;10.616;2022-08-11T06:05:53;7.68;;;4.47;;
64227;SDS011;50546;49.146;10.616;2022-08-11T06:08:30;7.93;;;4.10;;
64227;SDS011;50546;49.146;10.616;2022-08-11T06:11:03;9.90;;;4.43;;
64227;SDS011;50546;49.146;10.616;2022-08-11T06:13:29;7.05;;;4.22;;
64227;SDS011;50546;49.146;10.616;2022-08-11T06:15:55;6.07;;;3.90;;
64227;SDS011;50546;49.146;10.616;2022-08-11T06:18:22;7.40;;;4.28;;
64227;SDS011;50546;49.146;10.616;2022-08-11T06:20:50;6.40;;;4.13;;
64227;SDS011;50546;49.146;10.616;2022-08-11T06:23:18;8.63;;;4.30;;
64227;SDS011;50546;49.146;10.616;2022-08-11T06:25:48;6.47;;;3.83;;
64227;SDS011;50546;49.146;10.616;2022-08-11T06:28:14;7.63;;;3.97;;
64227;SDS011;50546;49.146;10.616;2022-08-11T06:30:44;7.40;;;4.03;;
64227;SDS011;50546;49.146;10.616;2022-08-11T06:33:11;7.70;;;3.83;;
64227;SDS011;50546;49.146;10.616;2022-08-11T06:38:14;10.52;;;3.83;;
64227;SDS011;50546;49.146;10.616;2022-08-11T06:41:00;6.30;;;3.78;;
64227;SDS011;50546;49.146;10.616;2022-08-11T06:49:08;7.00;;;4.13;;
64227;SDS011;50546;49.146;10.616;2022-08-11T06:51:55;7.85;;;3.92;;
64227;SDS011;50546;49.146;10.616;2022-08-11T06:54:25;8.45;;;3.90;;
64227;SDS011;50546;49.146;10.616;2022-08-11T06:56:54;7.50;;;3.47;;
64227;SDS011;50546;49.146;10.616;2022-08-11T06:59:39;8.13;;;3.95;;
64227;SDS011;50546;49.146;10.616;2022-08-11T07:02:27;9.07;;;3.65;;
64227;SDS011;50546;49.146;10.616;2022-08-11T07:05:10;5.70;;;3.30;;
64227;SDS011;50546;49.146;10.616;2022-08-11T07:07:56;5.97;;;3.42;;
64227;SDS011;50546;49.146;10.616;2022-08-11T07:14:01;6.78;;;3.80;;
64227;SDS011;50546;49.146;10.616;2022-08-11T07:16:46;6.57;;;3.30;;
64227;SDS011;50546;49.146;10.616;2022-08-11T07:19:14;6.60;;;3.78;;
64227;SDS011;50546;49.146;10.616;2022-08-11T07:22:02;6.68;;;3.40;;
64227;SDS011;50546;49.146;10.616;2022-08-11T07:24:54;7.47;;;3.47;;
64227;SDS011;50546;49.146;10.616;2022-08-11T07:27:46;7.15;;;3.38;;
64227;SDS011;50546;49.146;10.616;2022-08-11T07:30:36;8.07;;;3.60;;
64227;SDS011;50546;49.146;10.616;2022-08-11T07:33:03;5.65;;;3.17;;
64227;SDS011;50546;49.146;10.616;2022-08-11T07:35:35;8.05;;;3.55;;
64227;SDS011;50546;49.146;10.616;2022-08-11T07:38:07;8.13;;;3.67;;
64227;SDS011;50546;49.146;10.616;2022-08-11T07:40:40;6.32;;;3.35;;
64227;SDS011;50546;49.146;10.616;2022-08-11T07:43:07;9.63;;;3.80;;
64227;SDS011;50546;49.146;10.616;2022-08-11T07:45:33;8.00;;;3.53;;
64227;SDS011;50546;49.146;10.616;2022-08-11T07:48:17;7.50;;;3.25;;
64227;SDS011;50546;49.146;10.616;2022-08-11T07:51:03;8.15;;;3.40;;
64227;SDS011;50546;49.146;10.616;2022-08-11T07:53:47;6.72;;;3.00;;
64227;SDS011;50546;49.146;10.616;2022-08-11T07:56:15;7.90;;;3.30;;
64227;SDS011;50546;49.146;10.616;2022-08-11T07:58:43;6.40;;;3.22;;
64227;SDS011;50546;49.146;10.616;2022-08-11T08:01:28;5.70;;;3.00;;
64227;SDS011;50546;49.146;10.616;2022-08-11T08:04:15;6.15;;;3.17;;
64227;SDS011;50546;49.146;10.616;2022-08-11T08:07:04;6.28;;;3.08;;
64227;SDS011;50546;49.146;10.616;2022-08-11T08:09:48;7.03;;;2.90;;
64227;SDS011;50546;49.146;10.616;2022-08-11T08:12:34;9.23;;;3.25;;
64227;SDS011;50546;49.146;10.616;2022-08-11T08:15:19;6.63;;;3.13;;
64227;SDS011;50546;49.146;10.616;2022-08-11T08:18:05;6.45;;;2.90;;
64227;SDS011;50546;49.146;10.616;2022-08-11T08:20:37;6.63;;;2.90;;
64227;SDS011;50546;49.146;10.616;2022-08-11T08:23:06;6.03;;;2.88;;
64227;SDS011;50546;49.146;10.616;2022-08-11T08:25:34;7.45;;;2.85;;
64227;SDS011;50546;49.146;10.616;2022-08-11T08:28:03;6.65;;;2.80;;
64227;SDS011;50546;49.146;10.616;2022-08-11T08:30:31;6.88;;;2.83;;
64227;SDS011;50546;49.146;10.616;2022-08-11T08:33:13;6.13;;;2.80;;
64227;SDS011;50546;49.146;10.616;2022-08-11T08:35:41;9.00;;;2.80;;
64227;SDS011;50546;49.146;10.616;2022-08-11T08:38:08;7.55;;;2.58;;
64227;SDS011;50546;49.146;10.616;2022-08-11T08:40:33;5.40;;;2.60;;
64227;SDS011;50546;49.146;10.616;2022-08-11T08:43:03;6.78;;;2.70;;
64227;SDS011;50546;49.146;10.616;2022-08-11T08:45:34;6.28;;;2.80;;
64227;SDS011;50546;49.146;10.616;2022-08-11T08:48:03;5.43;;;2.50;;
64227;SDS011;50546;49.146;10.616;2022-08-11T08:50:33;8.25;;;2.60;;
64227;SDS011;50546;49.146;10.616;2022-08-11T08:53:21;5.60;;;2.50;;
64227;SDS011;50546;49.146;10.616;2022-08-11T08:55:53;6.05;;;2.60;;
64227;SDS011;50546;49.146;10.616;2022-08-11T08:58:21;9.55;;;2.25;;
64227;SDS011;50546;49.146;10.616;2022-08-11T09:00:48;5.82;;;2.55;;
64227;SDS011;50546;49.146;10.616;2022-08-11T09:03:16;6.90;;;2.55;;
64227;SDS011;50546;49.146;10.616;2022-08-11T09:05:43;6.90;;;2.53;;
64227;SDS011;50546;49.146;10.616;2022-08-11T09:08:09;5.68;;;2.45;;
64227;SDS011;50546;49.146;10.616;2022-08-11T09:10:35;6.82;;;2.28;;
64227;SDS011;50546;49.146;10.616;2022-08-11T09:13:02;6.53;;;2.50;;
64227;SDS011;50546;49.146;10.616;2022-08-11T09:15:30;5.85;;;2.22;;
64227;SDS011;50546;49.146;10.616;2022-08-11T09:17:58;5.22;;;2.40;;
64227;SDS011;50546;49.146;10.616;2022-08-11T09:20:30;5.55;;;2.47;;
64227;SDS011;50546;49.146;10.616;2022-08-11T09:23:04;5.57;;;2.28;;
64227;SDS011;50546;49.146;10.616;2022-08-11T09:25:54;6.82;;;2.42;;
64227;SDS011;50546;49.146;10.616;2022-08-11T09:28:42;6.50;;;2.30;;
64227;SDS011;50546;49.146;10.616;2022-08-11T09:31:08;6.97;;;2.50;;
64227;SDS011;50546;49.146;10.616;2022-08-11T09:33:35;5.18;;;2.50;;
64227;SDS011;50546;49.146;10.616;2022-08-11T09:36:01;5.55;;;2.38;;
64227;SDS011;50546;49.146;10.616;2022-08-11T09:38:47;7.22;;;2.60;;
64227;SDS011;50546;49.146;10.616;2022-08-11T09:41:33;6.00;;;2.63;;
64227;SDS011;50546;49.146;10.616;2022-08-11T09:44:00;8.50;;;2.50;;
64227;SDS011;50546;49.146;10.616;2022-08-11T09:46:44;6.95;;;2.40;;
64227;SDS011;50546;49.146;10.616;2022-08-11T09:49:10;6.15;;;2.40;;
64227;SDS011;50546;49.146;10.616;2022-08-11T09:51:36;6.20;;;2.60;;
64227;SDS011;50546;49.146;10.616;2022-08-11T09:54:02;7.07;;;2.53;;
64227;SDS011;50546;49.146;10.616;2022-08-11T09:56:32;5.25;;;2.33;;
64227;SDS011;50546;49.146;10.616;2022-08-11T09:59:17;5.38;;;2.20;;
64227;SDS011;50546;49.146;10.616;2022-08-11T10:01:56;5.78;;;2.30;;
64227;SDS011;50546;49.146;10.616;2022-08-11T10:04:25;6.07;;;2.05;;
64227;SDS011;50546;49.146;10.616;2022-08-11T10:06:56;4.65;;;2.15;;
64227;SDS011;50546;49.146;10.616;2022-08-11T10:09:26;6.32;;;2.38;;
64227;SDS011;50546;49.146;10.616;2022-08-11T10:11:58;5.50;;;2.42;;
64227;SDS011;50546;49.146;10.616;2022-08-11T10:14:27;6.57;;;2.55;;
64227;SDS011;50546;49.146;10.616;2022-08-11T10:17:17;5.97;;;2.47;;
64227;SDS011;50546;49.146;10.616;2022-08-11T10:19:45;7.32;;;2.40;;
64227;SDS011;50546;49.146;10.616;2022-08-11T10:22:12;6.40;;;2.30;;
64227;SDS011;50546;49.146;10.616;2022-08-11T10:24:58;5.15;;;1.90;;
64227;SDS011;50546;49.146;10.616;2022-08-11T10:27:44;4.90;;;2.10;;
64227;SDS011;50546;49.146;10.616;2022-08-11T10:30:13;6.18;;;2.30;;
64227;SDS011;50546;49.146;10.616;2022-08-11T10:32:57;4.90;;;2.30;;
64227;SDS011;50546;49.146;10.616;2022-08-11T10:35:42;5.00;;;2.15;;
64227;SDS011;50546;49.146;10.616;2022-08-11T10:38:09;5.85;;;2.25;;
64227;SDS011;50546;49.146;10.616;2022-08-11T10:40:39;4.72;;;2.00;;
64227;SDS011;50546;49.146;10.616;2022-08-11T10:43:05;6.60;;;2.40;;
64227;SDS011;50546;49.146;10.616;2022-08-11T10:45:36;7.65;;;2.25;;
64227;SDS011;50546;49.146;10.616;2022-08-11T10:48:22;5.32;;;2.10;;
64227;SDS011;50546;49.146;10.616;2022-08-11T10:50:49;5.20;;;2.28;;
64227;SDS011;50546;49.146;10.616;2022-08-11T10:53:35;5.30;;;1.92;;
64227;SDS011;50546;49.146;10.616;2022-08-11T10:56:21;6.25;;;2.10;;
64227;SDS011;50546;49.146;10.616;2022-08-11T10:59:07;7.03;;;2.38;;
64227;SDS011;50546;49.146;10.616;2022-08-11T11:01:36;6.82;;;2.40;;
64227;SDS011;50546;49.146;10.616;2022-08-11T11:04:04;5.53;;;2.42;;
64227;SDS011;50546;49.146;10.616;2022-08-11T11:06:37;6.50;;;2.00;;
64227;SDS011;50546;49.146;10.616;2022-08-11T11:14:39;6.22;;;1.92;;
64227;SDS011;50546;49.146;10.616;2022-08-11T11:17:26;5.38;;;2.28;;
64227;SDS011;50546;49.146;10.616;2022-08-11T11:20:12;5.82;;;2.20;;
64227;SDS011;50546;49.146;10.616;2022-08-11T11:22:41;6.47;;;2.30;;
64227;SDS011;50546;49.146;10.616;2022-08-11T11:25:24;5.50;;;2.28;;
64227;SDS011;50546;49.146;10.616;2022-08-11T11:33:25;7.30;;;2.17;;
64227;SDS011;50546;49.146;10.616;2022-08-11T11:38:41;5.93;;;2.20;;
64227;SDS011;50546;49.146;10.616;2022-08-11T11:41:07;5.25;;;2.10;;
64227;SDS011;50546;49.146;10.616;2022-08-11T11:43:54;6.32;;;2.28;;
64227;SDS011;50546;49.146;10.616;2022-08-11T11:46:22;4.93;;;1.90;;
64227;SDS011;50546;49.146;10.616;2022-08-11T11:48:50;5.15;;;2.00;;
64227;SDS011;50546;49.146;10.616;2022-08-11T11:51:17;6.82;;;3.17;;
64227;SDS011;50546;49.146;10.616;2022-08-11T11:53:44;9.57;;;2.20;;
64227;SDS011;50546;49.146;10.616;2022-08-11T11:56:11;5.65;;;2.20;;
64227;SDS011;50546;49.146;10.616;2022-08-11T11:58:38;5.90;;;2.20;;
64227;SDS011;50546;49.146;10.616;2022-08-11T12:01:23;5.03;;;2.10;;
64227;SDS011;50546;49.146;10.616;2022-08-11T12:03:51;6.10;;;2.40;;
64227;SDS011;50546;49.146;10.616;2022-08-11T12:06:18;8.70;;;2.42;;
64227;SDS011;50546;49.146;10.616;2022-08-11T12:08:47;5.85;;;2.30;;
64227;SDS011;50546;49.146;10.616;2022-08-11T12:11:14;5.32;;;2.42;;
64227;SDS011;50546;49.146;10.616;2022-08-11T12:13:59;13.70;;;2.30;;
64227;SDS011;50546;49.146;10.616;2022-08-11T12:16:27;5.95;;;2.20;;
64227;SDS011;50546;49.146;10.616;2022-08-11T12:19:00;7.75;;;2.08;;
64227;SDS011;50546;49.146;10.616;2022-08-11T12:21:28;5.53;;;1.92;;
64227;SDS011;50546;49.146;10.616;2022-08-11T12:23:55;6.70;;;2.22;;
64227;SDS011;50546;49.146;10.616;2022-08-11T12:26:41;4.70;;;1.98;;
64227;SDS011;50546;49.146;10.616;2022-08-11T12:29:13;7.30;;;2.30;;
64227;SDS011;50546;49.146;10.616;2022-08-11T12:31:41;5.25;;;2.22;;
64227;SDS011;50546;49.146;10.616;2022-08-11T12:34:09;5.97;;;2.00;;
64227;SDS011;50546;49.146;10.616;2022-08-11T12:36:36;5.00;;;2.25;;
64227;SDS011;50546;49.146;10.616;2022-08-11T12:39:04;7.13;;;2.20;;
64227;SDS011;50546;49.146;10.616;2022-08-11T12:41:31;6.15;;;2.13;;
64227;SDS011;50546;49.146;10.616;2022-08-11T12:44:16;5.25;;;2.20;;
64227;SDS011;50546;49.146;10.616;2022-08-11T12:47:01;5.22;;;1.90;;
64227;SDS011;50546;49.146;10.616;2022-08-11T12:49:29;7.28;;;2.30;;
64227;SDS011;50546;49.146;10.616;2022-08-11T12:52:21;7.43;;;1.90;;
64227;SDS011;50546;49.146;10.616;2022-08-11T12:55:02;4.80;;;2.00;;
64227;SDS011;50546;49.146;10.616;2022-08-11T12:57:36;5.82;;;1.83;;
64227;SDS011;50546;49.146;10.616;2022-08-11T13:00:23;6.75;;;2.35;;
64227;SDS011;50546;49.146;10.616;2022-08-11T13:03:08;6.45;;;2.00;;
64227;SDS011;50546;49.146;10.616;2022-08-11T13:05:57;5.07;;;1.98;;
64227;SDS011;50546;49.146;10.616;2022-08-11T13:08:25;5.40;;;2.10;;
64227;SDS011;50546;49.146;10.616;2022-08-11T13:10:53;6.43;;;2.17;;
64227;SDS011;50546;49.146;10.616;2022-08-11T13:13:39;5.35;;;2.05;;
64227;SDS011;50546;49.146;10.616;2022-08-11T13:16:07;6.35;;;1.80;;
64227;SDS011;50546;49.146;10.616;2022-08-11T13:18:33;6.13;;;2.00;;
64227;SDS011;50546;49.146;10.616;2022-08-11T13:20:59;5.30;;;2.00;;
64227;SDS011;50546;49.146;10.616;2022-08-11T13:23:25;5.32;;;2.00;;
64227;SDS011;50546;49.146;10.616;2022-08-11T13:25:53;5.15;;;1.80;;
64227;SDS011;50546;49.146;10.616;2022-08-11T13:28:20;4.90;;;1.90;;
64227;SDS011;50546;49.146;10.616;2022-08-11T13:30:50;5.75;;;1.98;;
64227;SDS011;50546;49.146;10.616;2022-08-11T13:33:35;5.30;;;2.30;;
64227;SDS011;50546;49.146;10.616;2022-08-11T13:36:06;5.60;;;2.17;;
64227;SDS011;50546;49.146;10.616;2022-08-11T13:38:33;6.50;;;2.20;;
64227;SDS011;50546;49.146;10.616;2022-08-11T13:40:59;5.57;;;2.00;;
64227;SDS011;50546;49.146;10.616;2022-08-11T13:43:25;8.13;;;2.20;;
64227;SDS011;50546;49.146;10.616;2022-08-11T13:45:51;5.45;;;1.92;;
64227;SDS011;50546;49.146;10.616;2022-08-11T13:48:37;6.18;;;2.10;;
64227;SDS011;50546;49.146;10.616;2022-08-11T13:51:06;5.50;;;2.30;;
64227;SDS011;50546;49.146;10.616;2022-08-11T13:53:50;5.05;;;1.90;;
64227;SDS011;50546;49.146;10.616;2022-08-11T13:56:17;4.60;;;1.90;;
64227;SDS011;50546;49.146;10.616;2022-08-11T13:58:43;6.97;;;2.15;;
64227;SDS011;50546;49.146;10.616;2022-08-11T14:01:09;4.80;;;1.90;;
64227;SDS011;50546;49.146;10.616;2022-08-11T14:03:35;4.70;;;1.70;;
64227;SDS011;50546;49.146;10.616;2022-08-11T14:06:05;6.30;;;1.90;;
64227;SDS011;50546;49.146;10.616;2022-08-11T14:08:34;6.65;;;1.70;;
64227;SDS011;50546;49.146;10.616;2022-08-11T14:11:04;5.30;;;1.92;;
64227;SDS011;50546;49.146;10.616;2022-08-11T14:13:50;6.63;;;1.70;;
64227;SDS011;50546;49.146;10.616;2022-08-11T14:16:25;5.35;;;1.90;;
64227;SDS011;50546;49.146;10.616;2022-08-11T14:18:53;5.50;;;2.00;;
64227;SDS011;50546;49.146;10.616;2022-08-11T14:21:24;5.05;;;1.70;;
64227;SDS011;50546;49.146;10.616;2022-08-11T14:24:09;4.80;;;1.80;;
64227;SDS011;50546;49.146;10.616;2022-08-11T14:26:36;5.57;;;1.70;;
64227;SDS011;50546;49.146;10.616;2022-08-11T14:31:32;4.93;;;1.67;;
64227;SDS011;50546;49.146;10.616;2022-08-11T14:34:03;5.78;;;2.00;;
64227;SDS011;50546;49.146;10.616;2022-08-11T14:36:32;5.32;;;2.00;;
64227;SDS011;50546;49.146;10.616;2022-08-11T14:39:00;4.97;;;1.65;;
64227;SDS011;50546;49.146;10.616;2022-08-11T14:41:28;8.13;;;1.90;;
64227;SDS011;50546;49.146;10.616;2022-08-11T14:44:12;5.68;;;1.70;;
64227;SDS011;50546;49.146;10.616;2022-08-11T14:46:57;4.97;;;1.80;;
64227;SDS011;50546;49.146;10.616;2022-08-11T14:49:29;5.25;;;2.28;;
64227;SDS011;50546;49.146;10.616;2022-08-11T14:51:58;4.70;;;1.70;;
64227;SDS011;50546;49.146;10.616;2022-08-11T14:54:25;5.38;;;2.05;;
64227;SDS011;50546;49.146;10.616;2022-08-11T14:57:12;5.60;;;1.90;;
64227;SDS011;50546;49.146;10.616;2022-08-11T14:59:38;5.68;;;1.90;;
64227;SDS011;50546;49.146;10.616;2022-08-11T15:02:04;6.07;;;2.30;;
64227;SDS011;50546;49.146;10.616;2022-08-11T15:04:49;7.97;;;2.20;;
64227;SDS011;50546;49.146;10.616;2022-08-11T15:07:15;6.95;;;2.30;;
64227;SDS011;50546;49.146;10.616;2022-08-11T15:09:41;5.05;;;2.10;;
64227;SDS011;50546;49.146;10.616;2022-08-11T15:12:08;6.43;;;2.20;;
64227;SDS011;50546;49.146;10.616;2022-08-11T15:14:45;7.53;;;2.03;;
64227;SDS011;50546;49.146;10.616;2022-08-11T15:17:31;5.20;;;2.10;;
64227;SDS011;50546;49.146;10.616;2022-08-11T15:19:59;6.75;;;2.20;;
64227;SDS011;50546;49.146;10.616;2022-08-11T15:22:46;5.75;;;1.85;;
64227;SDS011;50546;49.146;10.616;2022-08-11T15:25:31;5.22;;;1.92;;
64227;SDS011;50546;49.146;10.616;2022-08-11T15:27:58;6.20;;;2.20;;
64227;SDS011;50546;49.146;10.616;2022-08-11T15:30:44;5.07;;;1.77;;
64227;SDS011;50546;49.146;10.616;2022-08-11T15:33:30;5.78;;;2.10;;
64227;SDS011;50546;49.146;10.616;2022-08-11T15:36:15;4.93;;;2.00;;
64227;SDS011;50546;49.146;10.616;2022-08-11T15:39:02;8.32;;;2.25;;
64227;SDS011;50546;49.146;10.616;2022-08-11T15:41:43;6.47;;;2.00;;
64227;SDS011;50546;49.146;10.616;2022-08-11T15:44:30;5.18;;;2.10;;
64227;SDS011;50546;49.146;10.616;2022-08-11T15:47:17;5.70;;;2.00;;
64227;SDS011;50546;49.146;10.616;2022-08-11T15:49:46;5.70;;;2.22;;
64227;SDS011;50546;49.146;10.616;2022-08-11T15:52:17;9.93;;;2.20;;
64227;SDS011;50546;49.146;10.616;2022-08-11T15:54:46;5.50;;;2.00;;
64227;SDS011;50546;49.146;10.616;2022-08-11T15:57:17;4.88;;;2.17;;
64227;SDS011;50546;49.146;10.616;2022-08-11T16:00:03;5.78;;;2.17;;
64227;SDS011;50546;49.146;10.616;2022-08-11T16:02:50;6.20;;;2.20;;
64227;SDS011;50546;49.146;10.616;2022-08-11T16:05:19;5.68;;;2.00;;
64227;SDS011;50546;49.146;10.616;2022-08-11T16:07:46;5.53;;;2.00;;
64227;SDS011;50546;49.146;10.616;2022-08-11T16:10:16;6.50;;;2.10;;
64227;SDS011;50546;49.146;10.616;2022-08-11T16:13:05;5.85;;;2.30;;
64227;SDS011;50546;49.146;10.616;2022-08-11T16:15:38;5.35;;;1.80;;
64227;SDS011;50546;49.146;10.616;2022-08-11T16:18:29;6.90;;;2.65;;
64227;SDS011;50546;49.146;10.616;2022-08-11T16:21:12;6.18;;;2.17;;
64227;SDS011;50546;49.146;10.616;2022-08-11T16:23:43;5.93;;;2.10;;
64227;SDS011;50546;49.146;10.616;2022-08-11T16:26:10;6.35;;;2.00;;
64227;SDS011;50546;49.146;10.616;2022-08-11T16:28:37;5.38;;;2.00;;
64227;SDS011;50546;49.146;10.616;2022-08-11T16:31:05;4.90;;;1.90;;
64227;SDS011;50546;49.146;10.616;2022-08-11T16:33:34;6.05;;;2.00;;
64227;SDS011;50546;49.146;10.616;2022-08-11T16:36:05;6.07;;;2.05;;
64227;SDS011;50546;49.146;10.616;2022-08-11T16:38:51;5.28;;;2.00;;
64227;SDS011;50546;49.146;10.616;2022-08-11T16:41:18;5.63;;;2.00;;
64227;SDS011;50546;49.146;10.616;2022-08-11T16:44:05;5.25;;;2.10;;
64227;SDS011;50546;49.146;10.616;2022-08-11T16:46:51;5.07;;;2.03;;
64227;SDS011;50546;49.146;10.616;2022-08-11T16:49:25;4.82;;;2.00;;
64227;SDS011;50546;49.146;10.616;2022-08-11T16:51:53;7.05;;;2.20;;
64227;SDS011;50546;49.146;10.616;2022-08-11T16:54:18;5.13;;;2.03;;
64227;SDS011;50546;49.146;10.616;2022-08-11T16:56:45;4.65;;;2.10;;
64227;SDS011;50546;49.146;10.616;2022-08-11T16:59:18;5.57;;;1.88;;
64227;SDS011;50546;49.146;10.616;2022-08-11T17:04:19;5.32;;;2.05;;
64227;SDS011;50546;49.146;10.616;2022-08-11T17:07:19;5.15;;;2.03;;
64227;SDS011;50546;49.146;10.616;2022-08-11T17:10:05;9.35;;;2.50;;
64227;SDS011;50546;49.146;10.616;2022-08-11T17:12:53;4.88;;;2.10;;
64227;SDS011;50546;49.146;10.616;2022-08-11T17:15:40;7.38;;;2.65;;
64227;SDS011;50546;49.146;10.616;2022-08-11T17:18:32;5.00;;;2.00;;
64227;SDS011;50546;49.146;10.616;2022-08-11T17:21:06;4.90;;;2.03;;
64227;SDS011;50546;49.146;10.616;2022-08-11T17:23:36;5.68;;;2.35;;
64227;SDS011;50546;49.146;10.616;2022-08-11T17:26:11;5.47;;;1.92;;
64227;SDS011;50546;49.146;10.616;2022-08-11T17:28:39;6.80;;;2.15;;
64227;SDS011;50546;49.146;10.616;2022-08-11T17:31:06;5.05;;;2.10;;
64227;SDS011;50546;49.146;10.616;2022-08-11T17:33:52;6.05;;;2.38;;
64227;SDS011;50546;49.146;10.616;2022-08-11T17:36:39;5.55;;;2.05;;
64227;SDS011;50546;49.146;10.616;2022-08-11T17:39:08;5.25;;;1.90;;
64227;SDS011;50546;49.146;10.616;2022-08-11T17:41:35;5.03;;;2.13;;
64227;SDS011;50546;49.146;10.616;2022-08-11T17:44:21;5.85;;;2.17;;
64227;SDS011;50546;49.146;10.616;2022-08-11T17:47:05;6.13;;;2.20;;
64227;SDS011;50546;49.146;10.616;2022-08-11T17:49:50;5.97;;;2.13;;
64227;SDS011;50546;49.146;10.616;2022-08-11T17:52:17;4.97;;;1.90;;
64227;SDS011;50546;49.146;10.616;2022-08-11T17:55:02;5.82;;;1.90;;
64227;SDS011;50546;49.146;10.616;2022-08-11T17:57:46;4.85;;;1.95;;
64227;SDS011;50546;49.146;10.616;2022-08-11T18:00:32;5.30;;;1.92;;
64227;SDS011;50546;49.146;10.616;2022-08-11T18:02:59;5.60;;;2.03;;
64227;SDS011;50546;49.146;10.616;2022-08-11T18:05:44;5.13;;;2.10;;
64227;SDS011;50546;49.146;10.616;2022-08-11T18:08:12;6.70;;;2.13;;
64227;SDS011;50546;49.146;10.616;2022-08-11T18:10:59;5.25;;;2.13;;
64227;SDS011;50546;49.146;10.616;2022-08-11T18:13:44;6.22;;;2.17;;
64227;SDS011;50546;49.146;10.616;2022-08-11T18:16:31;5.82;;;2.15;;
64227;SDS011;50546;49.146;10.616;2022-08-11T18:19:15;5.70;;;2.13;;
64227;SDS011;50546;49.146;10.616;2022-08-11T18:22:04;5.18;;;2.00;;
64227;SDS011;50546;49.146;10.616;2022-08-11T18:25:00;5.53;;;2.38;;
64227;SDS011;50546;49.146;10.616;2022-08-11T18:27:48;4.80;;;1.90;;
64227;SDS011;50546;49.146;10.616;2022-08-11T18:30:37;4.80;;;1.85;;
64227;SDS011;50546;49.146;10.616;2022-08-11T18:33:23;4.65;;;1.98;;
64227;SDS011;50546;49.146;10.616;2022-08-11T18:36:13;6.13;;;2.22;;
64227;SDS011;50546;49.146;10.616;2022-08-11T18:39:05;6.28;;;2.45;;
64227;SDS011;50546;49.146;10.616;2022-08-11T18:41:53;6.47;;;2.40;;
64227;SDS011;50546;49.146;10.616;2022-08-11T18:44:40;5.20;;;2.20;;
64227;SDS011;50546;49.146;10.616;2022-08-11T18:47:25;5.95;;;2.30;;
64227;SDS011;50546;49.146;10.616;2022-08-11T18:50:11;6.53;;;2.30;;
64227;SDS011;50546;49.146;10.616;2022-08-11T18:52:57;5.72;;;2.30;;
64227;SDS011;50546;49.146;10.616;2022-08-11T18:55:43;5.65;;;2.08;;
64227;SDS011;50546;49.146;10.616;2022-08-11T18:58:31;5.72;;;2.10;;